Time;durP1;ratioP1;P1;durP2;ratioP2;P2;SDS_P1;SDS_P2;PMS_P1;PMS_P2;Temp;Humidity;BMP_temperature;BMP_pressure;BME280_temperature;BME280_humidity;BME280_pressure;Samples;Min_cycle;Max_cycle;Signal;HPM_P1;HPM_P2
2024/05/04 00:01:45;;;;;;;4.40;3.28;;;;;;;5.66;93.72;100407.28;5250676;27;20006;-56
2024/05/04 00:04:10;;;;;;;2.95;2.38;;;;;;;5.71;93.66;100417.22;5254560;27;20002;-56
2024/05/04 00:06:35;;;;;;;3.20;2.03;;;;;;;5.67;93.75;100418.41;5251052;27;20013;-56
2024/05/04 00:09:01;;;;;;;2.08;1.88;;;;;;;5.51;93.50;100399.03;5254716;27;20073;-56
2024/05/04 00:11:26;;;;;;;1.60;1.45;;;;;;;5.62;93.39;100416.22;5251742;27;20090;-56
2024/05/04 00:13:52;;;;;;;2.45;1.83;;;;;;;5.66;93.97;100417.59;5252740;27;20073;-57
2024/05/04 00:16:17;;;;;;;2.30;2.10;;;;;;;5.57;93.45;100403.69;5252607;27;20339;-56
2024/05/04 00:18:42;;;;;;;2.63;1.95;;;;;;;5.53;93.32;100399.72;5250312;27;20606;-57
2024/05/04 00:21:08;;;;;;;3.58;2.90;;;;;;;5.51;93.57;100406.75;5255966;27;20017;-56
2024/05/04 00:23:33;;;;;;;8.13;4.10;;;;;;;5.50;94.15;100405.13;5251236;27;19999;-56
2024/05/04 00:25:58;;;;;;;4.85;3.63;;;;;;;5.49;94.43;100406.06;5256050;27;20448;-57
2024/05/04 00:28:25;;;;;;;3.60;2.80;;;;;;;5.54;94.50;100421.16;5253941;27;20474;-58
2024/05/04 00:30:50;;;;;;;2.97;2.05;;;;;;;5.38;94.76;100398.38;5252188;27;20018;-56
2024/05/04 00:33:16;;;;;;;2.80;2.08;;;;;;;5.07;94.07;100363.09;5255446;27;20002;-56
2024/05/04 00:35:41;;;;;;;2.92;2.13;;;;;;;5.40;94.03;100406.78;5250122;27;20006;-56
2024/05/04 00:38:06;;;;;;;3.88;2.03;;;;;;;5.47;93.95;100407.91;5262308;21;20029;-55
2024/05/04 00:40:32;;;;;;;2.95;1.73;;;;;;;5.08;93.79;100341.59;5230039;27;20014;-53
2024/05/04 00:42:57;;;;;;;2.92;2.50;;;;;;;5.32;94.08;100388.53;5253408;27;20004;-54
2024/05/04 00:45:22;;;;;;;4.60;2.78;;;;;;;5.47;94.20;100417.41;5252420;27;20459;-54
2024/05/04 00:47:48;;;;;;;3.22;2.42;;;;;;;5.29;94.42;100397.34;5249666;27;20002;-54
2024/05/04 00:50:15;;;;;;;2.80;2.28;;;;;;;5.45;94.72;100425.25;5258685;27;20014;-55
2024/05/04 00:52:41;;;;;;;2.75;2.08;;;;;;;5.52;94.31;100420.44;5259161;27;20022;-55
2024/05/04 00:55:07;;;;;;;2.47;2.10;;;;;;;5.47;94.10;100413.06;5273566;27;19998;-54
2024/05/04 00:57:34;;;;;;;3.75;3.10;;;;;;;5.59;94.54;100426.72;5261224;27;20003;-54
2024/05/04 01:00:01;;;;;;;5.72;4.00;;;;;;;5.58;94.59;100420.78;5256866;27;20400;-54
2024/05/04 01:02:27;;;;;;;5.60;3.63;;;;;;;5.48;94.35;100422.47;5262924;27;20375;-54
2024/05/04 01:04:53;;;;;;;2.78;2.28;;;;;;;5.36;94.59;100420.84;5255217;27;20475;-54
2024/05/04 01:07:19;;;;;;;2.08;1.88;;;;;;;5.28;94.14;100420.63;5260938;27;20034;-54
2024/05/04 01:09:45;;;;;;;2.42;2.10;;;;;;;5.21;93.89;100419.50;5261108;27;19998;-55
2024/05/04 01:12:11;;;;;;;2.33;1.85;;;;;;;5.18;94.33;100417.97;5259621;27;20474;-54
2024/05/04 01:14:39;;;;;;;2.67;1.92;;;;;;;5.23;94.16;100426.16;5246043;27;20018;-56
2024/05/04 01:17:05;;;;;;;1.90;1.73;;;;;;;5.22;93.72;100429.66;5258688;27;20002;-54
2024/05/04 01:19:33;;;;;;;2.75;2.38;;;;;;;5.21;94.45;100429.78;5259374;27;20002;-54
2024/05/04 01:22:00;;;;;;;3.60;2.50;;;;;;;5.19;94.09;100429.06;5266978;27;20003;-56
2024/05/04 01:24:25;;;;;;;2.38;1.75;;;;;;;5.18;93.80;100424.88;5256399;27;20514;-54
2024/05/04 01:26:50;;;;;;;2.33;2.03;;;;;;;5.18;93.50;100424.88;5255542;27;20018;-54
2024/05/04 01:29:16;;;;;;;2.88;2.30;;;;;;;5.19;93.62;100429.06;5258318;27;20021;-54
2024/05/04 01:31:41;;;;;;;7.25;3.70;;;;;;;4.43;94.19;100295.19;5274112;27;20014;-54
2024/05/04 01:34:06;;;;;;;4.97;3.80;;;;;;;5.27;94.19;100434.44;5266612;27;20017;-54
2024/05/04 01:36:33;;;;;;;3.72;2.60;;;;;;;5.17;94.73;100431.78;5267035;27;20470;-54
2024/05/04 01:38:59;;;;;;;4.35;2.85;;;;;;;5.10;94.24;100433.19;5262440;27;20003;-54
2024/05/04 01:41:26;;;;;;;6.78;3.10;;;;;;;5.07;94.88;100430.03;5250824;27;20082;-54
2024/05/04 01:43:52;;;;;;;2.80;2.30;;;;;;;5.03;94.43;100432.84;5263161;27;20053;-55
2024/05/04 01:46:19;;;;;;;2.83;2.17;;;;;;;5.00;94.58;100433.09;5266917;27;20002;-56
2024/05/04 01:48:45;;;;;;;2.55;2.00;;;;;;;4.99;94.33;100431.47;5273690;27;20021;-55
2024/05/04 01:51:12;;;;;;;4.28;2.25;;;;;;;4.97;94.88;100440.22;5267107;27;20010;-54
2024/05/04 01:53:41;;;;;;;2.05;1.85;;;;;;;4.98;94.19;100439.28;5261342;27;20085;-56
2024/05/04 01:56:09;;;;;;;1.90;1.70;;;;;;;4.98;94.87;100437.53;5266497;27;20010;-56
2024/05/04 01:58:41;;;;;;;2.85;1.90;;;;;;;4.71;94.56;100390.78;5266849;27;20011;-55
2024/05/04 02:01:07;;;;;;;2.67;2.03;;;;;;;4.98;94.66;100440.13;5266922;27;20034;-56
2024/05/04 02:03:32;;;;;;;3.83;2.53;;;;;;;4.96;95.03;100431.69;5255690;27;20073;-55
2024/05/04 02:05:58;;;;;;;2.75;2.00;;;;;;;4.95;94.88;100435.22;5237553;27;20003;-55
2024/05/04 02:08:23;;;;;;;2.30;2.00;;;;;;;4.93;94.84;100429.34;5239612;27;19999;-55
2024/05/04 02:10:49;;;;;;;3.15;1.88;;;;;;;4.91;94.60;100427.81;5239418;27;20003;-55
2024/05/04 02:13:14;;;;;;;4.18;2.25;;;;;;;4.93;95.21;100429.34;5239444;27;20011;-55
2024/05/04 02:15:40;;;;;;;2.63;2.20;;;;;;;4.92;95.07;100425.13;5245661;27;20014;-56
2024/05/04 02:18:06;;;;;;;3.53;2.10;;;;;;;4.89;94.59;100427.13;5239261;27;20003;-55
2024/05/04 02:20:31;;;;;;;4.78;2.53;;;;;;;4.88;94.88;100428.88;5239239;27;20375;-54
2024/05/04 02:22:56;;;;;;;2.58;1.83;;;;;;;4.91;94.50;100426.06;5239183;27;20003;-55
2024/05/04 02:25:24;;;;;;;2.78;2.00;;;;;;;4.92;94.87;100424.31;5245233;27;20003;-56
2024/05/04 02:27:50;;;;;;;3.67;2.33;;;;;;;4.90;95.03;100426.19;5247300;27;20014;-54
2024/05/04 02:30:15;;;;;;;2.42;1.83;;;;;;;4.85;94.57;100421.41;5239665;27;20003;-54
2024/05/04 02:32:40;;;;;;;2.83;2.15;;;;;;;4.84;94.75;100419.78;5239168;27;20490;-55
2024/05/04 02:35:06;;;;;;;3.00;2.47;;;;;;;4.85;95.08;100416.25;5244567;27;20460;-54
2024/05/04 02:37:31;;;;;;;2.80;1.90;;;;;;;4.82;94.80;100416.50;5241969;27;20026;-54
2024/05/04 02:39:57;;;;;;;3.38;2.10;;;;;;;4.81;94.81;100414.88;5243652;27;20456;-54
2024/05/04 02:42:22;;;;;;;3.00;2.50;;;;;;;4.83;95.01;100412.19;5248543;27;20011;-54
2024/05/04 02:44:47;;;;;;;5.85;3.28;;;;;;;4.85;94.62;100413.69;5242837;27;20030;-54
2024/05/04 02:47:13;;;;;;;3.28;2.67;;;;;;;4.81;94.66;100411.44;5242950;27;20035;-56
2024/05/04 02:49:38;;;;;;;4.57;3.10;;;;;;;4.70;94.92;100399.44;5247808;27;20010;-54
2024/05/04 02:52:04;;;;;;;4.40;2.83;;;;;;;4.75;94.96;100413.56;5258201;27;20362;-55
2024/05/04 02:54:29;;;;;;;4.07;3.25;;;;;;;4.73;95.28;100415.44;5260332;27;20006;-54
2024/05/04 02:56:54;;;;;;;2.90;2.53;;;;;;;4.72;95.60;100410.44;5261267;27;20014;-55
2024/05/04 02:59:20;;;;;;;3.28;2.10;;;;;;;4.72;95.38;100410.44;5273463;27;20033;-54
2024/05/04 03:01:45;;;;;;;2.58;2.05;;;;;;;4.71;95.81;100404.47;5257803;27;20374;-54
2024/05/04 03:04:11;;;;;;;2.60;2.22;;;;;;;4.71;95.29;100401.88;5257530;27;20006;-55
2024/05/04 03:06:37;;;;;;;3.00;2.00;;;;;;;4.72;95.12;100405.28;5267046;27;20002;-54
2024/05/04 03:09:03;;;;;;;2.08;1.75;;;;;;;4.63;95.30;100385.41;5257261;27;20014;-54
2024/05/04 03:11:28;;;;;;;1.95;1.60;;;;;;;4.74;95.05;100390.53;5269936;27;20002;-55
2024/05/04 03:13:54;;;;;;;4.68;2.20;;;;;;;4.76;95.24;100393.81;5270026;27;20030;-55
2024/05/04 03:16:19;;;;;;;3.75;2.53;;;;;;;4.75;95.13;100394.75;5275664;27;20006;-55
2024/05/04 03:18:44;;;;;;;3.85;2.72;;;;;;;4.71;95.58;100394.19;5270024;27;20010;-54
2024/05/04 03:21:10;;;;;;;2.80;2.42;;;;;;;4.65;95.59;100398.97;5275737;27;20089;-55
2024/05/04 03:23:37;;;;;;;2.30;1.90;;;;;;;4.61;95.40;100395.00;5265269;27;20059;-54
2024/05/04 03:26:03;;;;;;;2.30;1.90;;;;;;;4.60;95.05;100393.34;5265775;27;20039;-55
2024/05/04 03:28:28;;;;;;;3.65;2.50;;;;;;;4.63;95.19;100401.66;5264727;27;20007;-55
2024/05/04 03:30:53;;;;;;;4.28;2.78;;;;;;;4.50;95.08;100372.66;5262313;27;20014;-55
2024/05/04 03:33:19;;;;;;;4.43;2.42;;;;;;;4.62;95.04;100397.44;5266071;27;20002;-54
2024/05/04 03:35:44;;;;;;;3.22;2.15;;;;;;;4.58;94.90;100402.94;5266174;27;19999;-54
2024/05/04 03:38:09;;;;;;;2.22;2.00;;;;;;;4.24;95.06;100348.13;5263962;27;20017;-56
2024/05/04 03:40:35;;;;;;;3.00;2.15;;;;;;;4.55;94.75;100406.56;5266935;27;19998;-55
2024/05/04 03:43:00;;;;;;;3.15;1.75;;;;;;;4.55;94.72;100409.16;5260770;27;20002;-54
2024/05/04 03:45:25;;;;;;;3.20;2.20;;;;;;;4.53;94.83;100400.72;5247862;27;20014;-54
2024/05/04 03:47:51;;;;;;;2.47;2.03;;;;;;;4.51;94.74;100396.63;5247731;27;20002;-55
2024/05/04 03:50:16;;;;;;;2.53;2.20;;;;;;;4.57;94.62;100409.03;5275403;27;20006;-56
2024/05/04 03:52:41;;;;;;;2.10;1.90;;;;;;;4.43;94.29;100392.91;5270454;27;20021;-54
2024/05/04 03:55:07;;;;;;;2.25;1.83;;;;;;;4.50;94.58;100410.41;5270651;27;20021;-54
2024/05/04 03:57:32;;;;;;;2.85;1.98;;;;;;;4.48;94.53;100415.69;5273305;27;20014;-55
2024/05/04 03:59:57;;;;;;;2.70;1.90;;;;;;;4.47;94.69;100416.63;5255395;27;20431;-54
2024/05/04 04:02:23;;;;;;;1.95;1.75;;;;;;;4.48;94.37;100412.28;5267801;27;20017;-56
2024/05/04 04:04:48;;;;;;;2.03;1.83;;;;;;;4.44;94.78;100409.97;5254928;27;20003;-54
2024/05/04 04:07:13;;;;;;;2.38;1.92;;;;;;;4.52;94.75;100418.81;5262364;27;20010;-55
2024/05/04 04:09:39;;;;;;;1.92;1.75;;;;;;;4.56;95.15;100421.06;5250549;27;20017;-55
2024/05/04 04:12:04;;;;;;;2.70;2.35;;;;;;;4.63;94.86;100421.41;5260073;27;20018;-54
2024/05/04 04:14:29;;;;;;;2.85;2.33;;;;;;;4.59;94.94;100415.69;5266629;27;20024;-55
2024/05/04 04:16:55;;;;;;;1.73;1.63;;;;;;;4.64;94.87;100425.63;5263214;27;20086;-54
2024/05/04 04:19:20;;;;;;;2.10;1.83;;;;;;;4.67;95.05;100433.09;5269950;27;20473;-55
2024/05/04 04:21:45;;;;;;;2.30;1.85;;;;;;;4.65;94.91;100432.38;5270710;27;20371;-55
2024/05/04 04:24:11;;;;;;;2.40;2.20;;;;;;;4.72;95.07;100436.16;5266905;27;20017;-55
2024/05/04 04:26:36;;;;;;;3.08;2.05;;;;;;;4.76;94.68;100437.53;5269262;27;20081;-56
2024/05/04 04:29:01;;;;;;;2.85;2.45;;;;;;;4.58;95.28;100408.09;5266413;27;20022;-55
2024/05/04 04:31:27;;;;;;;3.00;2.40;;;;;;;4.82;95.37;100442.22;5268578;27;20006;-55
2024/05/04 04:33:52;;;;;;;4.20;2.25;;;;;;;4.71;94.85;100422.47;5264760;27;20003;-54
2024/05/04 04:36:17;;;;;;;2.72;2.35;;;;;;;4.84;95.07;100447.25;5269258;27;20010;-54
2024/05/04 04:38:42;;;;;;;4.32;3.22;;;;;;;4.81;95.07;100443.19;5269110;27;19999;-55
2024/05/04 04:41:08;;;;;;;5.47;3.20;;;;;;;4.78;95.20;100433.09;5275320;27;20002;-55
2024/05/04 04:43:33;;;;;;;4.55;2.97;;;;;;;4.80;95.59;100449.22;5271423;27;20021;-55
2024/05/04 04:45:58;;;;;;;6.80;3.20;;;;;;;4.83;95.52;100448.19;5270161;27;20002;-54
2024/05/04 04:48:24;;;;;;;3.53;2.50;;;;;;;4.87;95.95;100447.00;5272668;27;20021;-54
2024/05/04 04:50:49;;;;;;;3.35;2.78;;;;;;;4.88;95.98;100454.63;5271178;27;20013;-56
2024/05/04 04:53:15;;;;;;;3.17;2.85;;;;;;;4.93;95.78;100454.25;5274146;27;19998;-54
2024/05/04 04:55:40;;;;;;;5.43;3.17;;;;;;;4.99;96.34;100452.03;5272286;27;20084;-54
2024/05/04 04:58:05;;;;;;;4.45;3.35;;;;;;;4.99;96.28;100436.59;5273511;27;20010;-54
2024/05/04 05:00:31;;;;;;;3.83;3.30;;;;;;;5.10;96.48;100447.81;5263096;27;20466;-55
2024/05/04 05:02:56;;;;;;;5.20;3.70;;;;;;;5.11;96.85;100442.56;5267021;27;20002;-56
2024/05/04 05:05:22;;;;;;;5.03;3.53;;;;;;;5.24;96.99;100442.41;5272660;27;20054;-55
2024/05/04 05:07:48;;;;;;;5.40;4.00;;;;;;;5.31;97.38;100441.81;5259359;27;20042;-54
2024/05/04 05:10:13;;;;;;;4.75;3.53;;;;;;;5.41;97.15;100447.06;5271405;27;20017;-55
2024/05/04 05:12:38;;;;;;;6.10;4.35;;;;;;;5.51;97.31;100442.81;5272617;27;20535;-55
2024/05/04 05:15:04;;;;;;;7.65;4.43;;;;;;;5.57;97.69;100432.00;5269857;27;20343;-55
2024/05/04 05:17:30;;;;;;;7.20;4.90;;;;;;;5.67;97.51;100426.13;5271784;27;20002;-55
2024/05/04 05:19:55;;;;;;;5.10;3.97;;;;;;;5.91;97.97;100447.38;5268610;27;20337;-55
2024/05/04 05:22:22;;;;;;;9.07;4.22;;;;;;;6.04;97.88;100452.38;5269458;27;20007;-55
2024/05/04 05:24:47;;;;;;;7.22;4.88;;;;;;;6.14;97.60;100433.44;5263446;27;20007;-58
2024/05/04 05:27:13;;;;;;;7.78;5.18;;;;;;;6.36;98.14;100442.78;5269837;27;20016;-56
2024/05/04 05:29:38;;;;;;;15.15;6.03;;;;;;;6.30;97.87;100406.38;5269349;27;20002;-57
2024/05/04 05:32:04;;;;;;;8.10;5.97;;;;;;;6.52;97.89;100419.91;5270279;27;20010;-58
2024/05/04 05:34:29;;;;;;;4.53;3.28;;;;;;;6.83;97.93;100445.75;5268921;27;19998;-57
2024/05/04 05:36:54;;;;;;;6.80;4.50;;;;;;;7.05;98.18;100439.53;5268466;27;21648;-56
2024/05/04 05:39:20;;;;;;;4.68;3.70;;;;;;;7.16;97.49;100434.28;5265338;27;19998;-58
2024/05/04 05:41:45;;;;;;;4.10;3.05;;;;;;;7.47;97.98;100449.69;5271523;27;20421;-56
2024/05/04 05:44:10;;;;;;;4.13;2.90;;;;;;;7.69;97.84;100445.09;5273172;27;20335;-55
2024/05/04 05:46:36;;;;;;;4.78;2.67;;;;;;;7.93;98.60;100446.44;5273532;27;20006;-55
2024/05/04 05:49:01;;;;;;;5.47;2.92;;;;;;;8.18;98.86;100445.06;5272062;27;20433;-56
2024/05/04 05:51:26;;;;;;;3.20;2.55;;;;;;;8.41;98.59;100441.22;5269751;27;20014;-57
2024/05/04 05:53:52;;;;;;;4.88;3.10;;;;;;;8.65;98.48;100443.31;5269902;27;20455;-55
2024/05/04 05:56:17;;;;;;;3.83;2.95;;;;;;;8.86;98.42;100440.53;5272919;27;20463;-55
2024/05/04 05:58:43;;;;;;;5.40;3.60;;;;;;;9.11;98.98;100447.63;5269891;27;20025;-58
2024/05/04 06:01:09;;;;;;;3.95;2.92;;;;;;;9.33;99.02;100448.97;5271731;27;20006;-56
2024/05/04 06:03:35;;;;;;;3.45;2.30;;;;;;;9.62;99.35;100446.22;5270673;27;20021;-56
2024/05/04 06:06:00;;;;;;;6.03;3.92;;;;;;;9.96;98.84;100445.50;5270545;27;20003;-57
2024/05/04 06:08:26;;;;;;;5.35;3.88;;;;;;;10.31;98.81;100453.28;5261050;27;20489;-56
2024/05/04 06:10:51;;;;;;;11.32;5.85;;;;;;;10.35;98.64;100410.47;5271122;27;20014;-58
2024/05/04 06:13:17;;;;;;;7.45;5.45;;;;;;;10.82;97.92;100456.00;5270030;27;20681;-57
2024/05/04 06:15:42;;;;;;;5.03;4.40;;;;;;;11.04;97.55;100457.19;5274088;27;20014;-54
2024/05/04 06:18:07;;;;;;;5.80;4.20;;;;;;;11.11;96.91;100451.22;5275050;27;20007;-56
2024/05/04 06:20:33;;;;;;;5.30;3.00;;;;;;;10.80;96.29;100387.78;5274500;27;20463;-55
2024/05/04 06:22:58;;;;;;;3.92;3.50;;;;;;;11.19;94.54;100459.03;5273497;27;20006;-56
2024/05/04 06:25:24;;;;;;;4.00;2.97;;;;;;;11.25;94.97;100435.03;5274635;27;20016;-56
2024/05/04 06:27:54;;;;;;;5.38;2.92;;;;;;;11.47;93.91;100449.19;5273765;27;20006;-56
2024/05/04 06:30:21;;;;;;;3.75;3.22;;;;;;;11.63;93.95;100455.41;5275569;27;20077;-57
2024/05/04 06:32:46;;;;;;;2.63;2.28;;;;;;;11.79;94.04;100458.06;5273793;27;20058;-57
2024/05/04 06:35:11;;;;;;;5.78;3.30;;;;;;;11.88;92.31;100453.66;5275460;27;20013;-55
2024/05/04 06:37:37;;;;;;;3.53;2.33;;;;;;;12.06;89.55;100465.53;5262858;27;20015;-58
2024/05/04 06:40:02;;;;;;;2.05;1.73;;;;;;;12.30;89.73;100461.31;5252629;27;20003;-56
2024/05/04 06:42:27;;;;;;;2.70;2.10;;;;;;;12.40;87.43;100446.28;5288433;22;20077;-56
2024/05/04 06:44:53;;;;;;;2.63;2.10;;;;;;;12.56;86.27;100448.88;5293557;27;20001;-54
2024/05/04 06:47:18;;;;;;;3.15;1.95;;;;;;;12.59;85.48;100422.47;5309665;26;20041;-57
2024/05/04 06:49:43;;;;;;;2.00;1.60;;;;;;;13.06;84.11;100452.91;5309537;26;19998;-59
2024/05/04 06:52:09;;;;;;;3.42;2.00;;;;;;;13.16;81.38;100468.34;5282610;27;20001;-56
2024/05/04 06:54:34;;;;;;;3.35;1.55;;;;;;;13.22;78.97;100455.50;5309268;26;20005;-56
2024/05/04 06:57:01;;;;;;;3.22;1.80;;;;;;;13.35;79.08;100454.09;5309940;26;20010;-56
2024/05/04 06:59:26;;;;;;;3.08;1.40;;;;;;;13.55;78.87;100455.28;5276263;26;19999;-57
2024/05/04 07:01:51;;;;;;;1.58;1.30;;;;;;;13.80;77.69;100459.34;5256570;27;20010;-57
2024/05/04 07:04:17;;;;;;;3.58;2.00;;;;;;;13.93;75.99;100455.34;5242729;27;20006;-55
2024/05/04 07:06:42;;;;;;;3.72;3.22;;;;;;;13.82;74.92;100439.09;5269926;27;20001;-58
2024/05/04 07:09:07;;;;;;;3.30;1.77;;;;;;;13.88;74.58;100458.44;5267265;26;20417;-57
2024/05/04 07:11:33;;;;;;;2.30;1.50;;;;;;;13.77;73.40;100446.66;5243439;27;20431;-56
2024/05/04 07:13:58;;;;;;;2.90;1.60;;;;;;;13.79;73.01;100444.69;5276857;27;20459;-56
2024/05/04 07:16:23;;;;;;;2.22;1.35;;;;;;;13.96;73.36;100454.97;5300334;26;20756;-57
2024/05/04 07:18:49;;;;;;;1.40;1.30;;;;;;;13.95;73.18;100422.03;5304870;27;20005;-58
2024/05/04 07:21:15;;;;;;;1.65;1.30;;;;;;;14.37;72.48;100463.25;5295315;26;19998;-58
2024/05/04 07:23:40;;;;;;;3.35;1.88;;;;;;;14.46;71.80;100455.19;5251123;27;20007;-57
2024/05/04 07:26:05;;;;;;;3.60;1.50;;;;;;;14.59;71.19;100451.97;5270843;27;20034;-57
2024/05/04 07:28:31;;;;;;;3.58;1.70;;;;;;;14.78;70.26;100450.59;5268402;27;19998;-59
2024/05/04 07:30:56;;;;;;;2.20;1.60;;;;;;;14.98;69.99;100458.69;5262830;27;20014;-58
2024/05/04 07:33:22;;;;;;;3.70;1.77;;;;;;;15.00;68.40;100454.91;5297793;27;20025;-56
2024/05/04 07:35:47;;;;;;;4.97;1.90;;;;;;;15.07;67.85;100455.78;5257135;26;20078;-61
2024/05/04 07:38:13;;;;;;;3.20;1.80;;;;;;;15.01;68.15;100445.25;5276287;26;20468;-56
2024/05/04 07:40:39;;;;;;;2.17;1.63;;;;;;;15.07;69.01;100455.78;5271686;27;20011;-57
2024/05/04 07:43:04;;;;;;;1.70;1.42;;;;;;;15.12;67.08;100454.44;5281103;27;20012;-57
2024/05/04 07:45:30;;;;;;;4.00;1.50;;;;;;;14.94;67.64;100439.13;5309389;26;20025;-58
2024/05/04 07:47:55;;;;;;;1.75;1.20;;;;;;;15.14;68.02;100455.88;5306372;26;20005;-57
2024/05/04 07:50:20;;;;;;;2.53;1.00;;;;;;;15.31;67.68;100446.00;5261540;27;20012;-57
2024/05/04 07:52:53;;;;;;;2.13;1.50;;;;;;;15.44;66.97;100455.78;5284158;26;19999;-56
2024/05/04 07:55:18;;;;;;;2.88;1.60;;;;;;;15.51;66.76;100451.44;5271071;26;20009;-57
2024/05/04 07:57:43;;;;;;;4.82;2.08;;;;;;;15.48;66.06;100450.00;5272714;27;20007;-57
2024/05/04 08:00:09;;;;;;;3.05;1.80;;;;;;;15.52;65.70;100435.56;5259847;27;20446;-59
2024/05/04 08:02:34;;;;;;;3.42;2.05;;;;;;;15.64;65.29;100449.81;5247412;27;20500;-56
2024/05/04 08:05:00;;;;;;;1.85;1.45;;;;;;;15.87;64.67;100446.97;5250653;27;20007;-57
2024/05/04 08:07:25;;;;;;;2.80;1.70;;;;;;;15.93;63.01;100440.19;5247631;27;20010;-58
2024/05/04 08:09:50;;;;;;;9.95;2.97;;;;;;;15.90;63.31;100443.19;5277029;27;20003;-57
2024/05/04 08:12:15;;;;;;;4.47;2.00;;;;;;;15.96;63.61;100432.75;5249942;26;19999;-57
2024/05/04 08:14:41;;;;;;;4.47;1.90;;;;;;;16.27;63.60;100437.59;5249501;27;20018;-58
2024/05/04 08:17:06;;;;;;;2.00;1.60;;;;;;;16.53;63.68;100436.13;5253785;27;20013;-57
2024/05/04 08:19:31;;;;;;;4.03;2.10;;;;;;;16.79;63.40;100438.94;5267991;27;20005;-56
2024/05/04 08:21:57;;;;;;;1.52;1.20;;;;;;;17.07;62.49;100438.03;5264204;26;20053;-54
2024/05/04 08:24:22;;;;;;;5.55;1.60;;;;;;;17.08;61.06;100439.63;5258393;27;20077;-55
2024/05/04 08:26:47;;;;;;;8.23;3.13;;;;;;;17.07;59.92;100432.78;5288098;27;20474;-58
2024/05/04 08:29:13;;;;;;;2.17;1.60;;;;;;;16.75;61.08;100361.66;5297394;27;20490;-59
2024/05/04 08:31:38;;;;;;;1.83;1.45;;;;;;;17.50;60.67;100430.69;5286952;27;20751;-55
2024/05/04 08:34:03;;;;;;;3.35;1.80;;;;;;;17.64;60.21;100395.56;5295481;27;20469;-57
2024/05/04 08:36:29;;;;;;;1.48;1.17;;;;;;;17.94;60.23;100424.88;5277153;27;20072;-57
2024/05/04 08:38:54;;;;;;;2.92;1.27;;;;;;;17.95;58.63;100415.97;5293089;27;20006;-59
2024/05/04 08:41:19;;;;;;;2.33;1.10;;;;;;;18.09;58.52;100421.22;5256471;27;20115;-58
2024/05/04 08:43:45;;;;;;;1.80;1.20;;;;;;;18.15;58.02;100410.69;5249876;27;20011;-55
2024/05/04 08:46:11;;;;;;;2.85;1.45;;;;;;;18.19;58.14;100385.63;5249290;26;20769;-57
2024/05/04 08:48:37;;;;;;;2.88;1.45;;;;;;;18.44;56.33;100419.97;5253991;27;20022;-59
2024/05/04 08:51:07;;;;;;;3.05;1.48;;;;;;;18.42;56.22;100421.16;5273212;27;20070;-58
2024/05/04 08:53:33;;;;;;;4.07;1.42;;;;;;;18.25;56.21;100415.53;5250859;27;20762;-57
2024/05/04 08:56:05;;;;;;;2.13;1.15;;;;;;;18.24;55.84;100419.97;5262778;27;19995;-58
2024/05/04 08:58:30;;;;;;;3.50;1.00;;;;;;;18.38;56.68;100418.13;5274176;27;20464;-56
2024/05/04 09:00:55;;;;;;;2.03;1.50;;;;;;;18.38;55.87;100422.59;5258233;27;20088;-57
2024/05/04 09:03:23;;;;;;;4.75;1.83;;;;;;;18.50;55.45;100410.41;5274388;26;20003;-56
2024/05/04 09:05:50;;;;;;;1.63;1.17;;;;;;;18.68;55.46;100415.03;5274801;27;20010;-56
2024/05/04 09:08:15;;;;;;;2.42;1.10;;;;;;;18.74;54.33;100414.22;5260913;26;19998;-59
2024/05/04 09:10:40;;;;;;;1.95;1.40;;;;;;;18.95;54.45;100408.66;5264038;27;20013;-58
2024/05/04 09:13:06;;;;;;;2.78;1.30;;;;;;;18.86;54.15;100371.25;5253379;27;20248;-58
2024/05/04 09:15:31;;;;;;;1.83;0.93;;;;;;;19.25;54.41;100389.69;5250577;27;19994;-56
2024/05/04 09:17:57;;;;;;;1.80;1.15;;;;;;;19.43;53.50;100395.00;5263176;27;19999;-57
2024/05/04 09:20:22;;;;;;;3.15;1.30;;;;;;;19.64;53.02;100393.91;5248181;26;20013;-60
2024/05/04 09:22:49;;;;;;;3.45;1.20;;;;;;;19.85;52.05;100395.31;5254132;27;20066;-56
2024/05/04 09:25:16;;;;;;;1.58;1.10;;;;;;;20.05;52.30;100388.06;5249764;26;20068;-57
2024/05/04 09:27:41;;;;;;;4.43;1.30;;;;;;;20.16;51.94;100383.88;5248092;27;20007;-57
2024/05/04 09:30:07;;;;;;;2.92;1.30;;;;;;;20.20;51.14;100406.97;5253347;27;20420;-58
2024/05/04 09:32:33;;;;;;;1.95;1.00;;;;;;;20.19;51.55;100400.09;5248356;27;19995;-57
2024/05/04 09:35:03;;;;;;;2.90;1.30;;;;;;;20.17;49.80;100399.50;5273534;27;19999;-57
2024/05/04 09:37:35;;;;;;;2.65;1.10;;;;;;;20.12;50.51;100394.06;5249508;27;20354;-57
2024/05/04 09:40:00;;;;;;;1.75;1.23;;;;;;;20.29;50.60;100389.00;5256940;26;19999;-56
2024/05/04 09:42:28;;;;;;;3.25;1.20;;;;;;;20.03;50.45;100340.00;5247935;27;20003;-57
2024/05/04 09:44:56;;;;;;;3.60;1.10;;;;;;;20.26;50.84;100373.63;5252571;27;20011;-58
2024/05/04 09:47:24;;;;;;;1.77;1.08;;;;;;;20.22;50.13;100383.81;5251412;26;20042;-61
2024/05/04 09:49:53;;;;;;;1.90;1.10;;;;;;;20.14;49.61;100386.72;5262091;27;20003;-56
2024/05/04 09:52:21;;;;;;;5.03;1.10;;;;;;;20.16;49.63;100387.31;5259810;26;20029;-57
2024/05/04 09:54:46;;;;;;;5.25;1.23;;;;;;;20.21;49.55;100374.28;5256147;27;20453;-57
2024/05/04 09:57:18;;;;;;;2.20;1.33;;;;;;;19.54;49.30;100262.63;5262760;26;20001;-58
2024/05/04 09:59:44;;;;;;;3.83;1.20;;;;;;;20.39;48.68;100389.31;5257453;27;20003;-57
2024/05/04 10:02:13;;;;;;;1.58;1.00;;;;;;;20.38;48.67;100388.50;5266491;27;20002;-58
2024/05/04 10:04:41;;;;;;;2.05;1.05;;;;;;;20.61;48.16;100390.50;5257513;27;20015;-57
2024/05/04 10:07:07;;;;;;;2.63;1.20;;;;;;;20.67;46.62;100383.53;5266285;27;20013;-56
2024/05/04 10:09:32;;;;;;;3.22;1.15;;;;;;;20.57;47.40;100356.88;5262274;27;20064;-57
2024/05/04 10:11:57;;;;;;;4.63;1.30;;;;;;;20.68;47.55;100377.22;5265341;27;20078;-57
2024/05/04 10:14:23;;;;;;;1.27;0.98;;;;;;;20.67;45.78;100375.63;5260033;26;20121;-58
2024/05/04 10:16:49;;;;;;;2.55;1.20;;;;;;;20.62;47.19;100357.00;5260256;27;20015;-56
2024/05/04 10:19:22;;;;;;;1.63;1.10;;;;;;;20.99;45.50;100359.59;5265334;26;20017;-59
2024/05/04 10:21:48;;;;;;;2.30;1.30;;;;;;;21.06;45.08;100369.00;5260873;27;20474;-57
2024/05/04 10:24:26;;;;;;;3.65;2.35;;;;;;;21.16;46.51;100368.47;5262010;26;20037;-56
2024/05/04 10:26:53;;;;;;;2.00;1.10;;;;;;;21.23;46.82;100351.50;5257001;27;20018;-57
2024/05/04 10:29:18;;;;;;;1.25;0.90;;;;;;;21.29;45.85;100317.31;5257657;26;20006;-56
2024/05/04 10:31:44;;;;;;;1.88;1.10;;;;;;;21.69;43.81;100351.81;5253979;27;20003;-58
2024/05/04 10:34:10;;;;;;;3.17;1.05;;;;;;;21.45;42.13;100332.50;5270793;26;20454;-59
2024/05/04 10:36:35;;;;;;;3.58;1.00;;;;;;;21.18;42.73;100316.22;5253948;27;20018;-58
2024/05/04 10:39:01;;;;;;;1.13;0.80;;;;;;;21.20;44.09;100330.00;5263778;27;20003;-56
2024/05/04 10:41:27;;;;;;;1.58;1.15;;;;;;;21.17;44.38;100349.75;5255087;26;20133;-56
2024/05/04 10:43:53;;;;;;;2.63;1.20;;;;;;;21.19;44.74;100357.44;5251164;27;20017;-55
2024/05/04 10:46:19;;;;;;;1.40;0.95;;;;;;;21.05;44.96;100293.47;5261393;27;20353;-58
2024/05/04 10:48:45;;;;;;;2.15;1.02;;;;;;;21.74;45.11;100351.91;5253729;27;20732;-57
2024/05/04 10:51:10;;;;;;;1.92;0.88;;;;;;;21.77;43.68;100335.63;5272677;26;20014;-56
2024/05/04 10:53:47;;;;;;;0.98;0.80;;;;;;;22.00;43.25;100335.59;5261667;27;20013;-56
2024/05/04 10:56:18;;;;;;;2.88;1.00;;;;;;;22.18;42.44;100337.31;5271111;26;20006;-58
2024/05/04 10:58:43;;;;;;;1.42;1.00;;;;;;;22.09;41.76;100305.13;5262788;27;20018;-58
2024/05/04 11:01:12;;;;;;;2.83;0.88;;;;;;;22.42;41.80;100324.81;5276141;27;19998;-57
2024/05/04 11:03:39;;;;;;;3.67;1.15;;;;;;;22.35;40.57;100324.97;5264863;27;20011;-57
2024/05/04 11:06:04;;;;;;;3.40;1.02;;;;;;;22.16;39.79;100322.69;5273861;27;20013;-57
2024/05/04 11:08:33;;;;;;;1.52;0.90;;;;;;;22.02;39.46;100316.84;5271802;26;20538;-57
2024/05/04 11:10:59;;;;;;;2.55;0.90;;;;;;;22.12;40.28;100327.66;5272902;27;20002;-58
2024/05/04 11:13:25;;;;;;;1.42;0.80;;;;;;;22.17;40.27;100313.72;5268429;26;20001;-56
2024/05/04 11:15:50;;;;;;;3.60;0.90;;;;;;;22.16;39.38;100296.25;5267817;27;20003;-56
2024/05/04 11:18:16;;;;;;;3.30;1.00;;;;;;;22.02;37.68;100295.69;5274649;26;20018;-58
2024/05/04 11:20:50;;;;;;;1.15;0.70;;;;;;;22.01;37.61;100289.59;5272307;27;20016;-58
2024/05/04 11:23:15;;;;;;;2.72;0.85;;;;;;;21.97;38.21;100277.88;5277057;27;20019;-57